Time;durP1;ratioP1;P1;durP2;ratioP2;P2;SDS_P1;SDS_P2;PMS_P1;PMS_P2;Temp;Humidity;BMP_temperature;BMP_pressure;BME280_temperature;BME280_humidity;BME280_pressure;Samples;Min_cycle;Max_cycle;Signal;HPM_P1;HPM_P2
2022/07/30 00:00:49;;;;;;;6.47;3.50;;;;;;;15.58;67.84;100212.00;4919838;29;20052;-81
2022/07/30 00:03:16;;;;;;;5.72;3.10;;;;;;;15.52;68.08;100212.94;4920408;29;20052;-84
2022/07/30 00:05:43;;;;;;;8.68;3.53;;;;;;;15.49;68.14;100210.34;4902745;29;20091;-83
2022/07/30 00:08:11;;;;;;;6.78;3.20;;;;;;;15.42;68.24;100200.75;4918218;29;20055;-84
2022/07/30 00:10:38;;;;;;;6.35;3.58;;;;;;;15.38;68.48;100208.72;4919212;29;20523;-82
2022/07/30 00:13:05;;;;;;;8.40;4.03;;;;;;;15.25;68.67;100200.06;4927488;29;20119;-82
2022/07/30 00:15:32;;;;;;;9.10;3.30;;;;;;;15.17;68.75;100202.81;4918886;29;20044;-84
2022/07/30 00:17:59;;;;;;;7.97;2.60;;;;;;;15.19;68.65;100210.69;4933004;29;20060;-84
2022/07/30 00:20:27;;;;;;;8.02;2.78;;;;;;;15.17;68.74;100212.47;4919006;29;20103;-83
2022/07/30 00:22:54;;;;;;;6.03;2.47;;;;;;;14.74;68.61;100137.47;4902086;29;20074;-82
2022/07/30 00:25:21;;;;;;;6.03;3.08;;;;;;;14.57;68.76;100119.22;4918923;29;20064;-82
2022/07/30 00:27:48;;;;;;;10.60;3.00;;;;;;;15.13;68.53;100219.50;4918722;29;20147;-84
2022/07/30 00:30:15;;;;;;;6.00;2.78;;;;;;;14.89;68.87;100175.91;4933276;29;20146;-85
2022/07/30 00:32:42;;;;;;;9.18;3.10;;;;;;;14.92;68.91;100192.50;4917541;29;20087;-82
2022/07/30 00:35:09;;;;;;;5.20;3.03;;;;;;;15.02;69.24;100218.75;4918631;29;20063;-82
2022/07/30 00:37:36;;;;;;;7.95;3.75;;;;;;;14.99;69.26;100209.09;4933294;29;20529;-80
2022/07/30 00:40:05;;;;;;;8.27;3.42;;;;;;;14.95;69.50;100213.53;4933178;29;20083;-83
2022/07/30 00:42:41;;;;;;;8.90;2.97;;;;;;;14.81;69.47;100196.13;4918600;29;20565;-80
2022/07/30 00:45:09;;;;;;;8.70;3.53;;;;;;;14.83;69.79;100207.50;4933254;29;20522;-79
2022/07/30 00:47:37;;;;;;;9.55;3.85;;;;;;;14.73;69.89;100194.44;4918516;29;20060;-81
2022/07/30 00:50:07;;;;;;;9.60;4.10;;;;;;;14.81;69.96;100223.28;4932935;29;20082;-82
2022/07/30 00:52:35;;;;;;;8.83;3.20;;;;;;;14.73;70.23;100202.34;4918424;29;20066;-83
2022/07/30 00:55:05;;;;;;;5.32;3.25;;;;;;;14.70;70.03;100206.72;4918291;29;20375;-83
2022/07/30 00:57:32;;;;;;;10.18;3.70;;;;;;;14.65;70.72;100196.25;4901325;29;20048;-82
2022/07/30 01:00:00;;;;;;;9.80;4.18;;;;;;;14.65;70.31;100195.41;4918105;29;20056;-83
2022/07/30 01:02:28;;;;;;;8.48;3.60;;;;;;;14.46;70.52;100171.84;4918147;29;20134;-84
2022/07/30 01:04:55;;;;;;;7.60;3.17;;;;;;;14.68;70.58;100214.63;4916522;29;20048;-82
2022/07/30 01:07:22;;;;;;;6.65;3.03;;;;;;;14.71;70.63;100212.00;4901245;29;20138;-82
2022/07/30 01:09:53;;;;;;;6.15;3.45;;;;;;;14.62;70.20;100182.25;4918306;29;20063;-83
2022/07/30 01:12:23;;;;;;;6.53;3.15;;;;;;;14.71;70.48;100204.09;4920071;29;20080;-84
2022/07/30 01:14:51;;;;;;;11.05;3.08;;;;;;;14.51;70.80;100167.41;4919007;29;20145;-79
2022/07/30 01:17:19;;;;;;;4.85;2.83;;;;;;;14.48;70.86;100158.69;4932631;29;20056;-84
2022/07/30 01:19:51;;;;;;;7.75;3.28;;;;;;;14.77;70.37;100200.53;4901435;29;20056;-83
2022/07/30 01:22:25;;;;;;;5.20;2.78;;;;;;;14.78;70.27;100207.56;4936884;29;20060;-82
2022/07/30 01:25:02;;;;;;;6.05;3.33;;;;;;;14.80;70.17;100197.88;4900794;29;20055;-82
2022/07/30 01:27:51;;;;;;;6.88;3.05;;;;;;;14.78;70.34;100202.28;4915395;29;20426;-83
2022/07/30 01:30:21;;;;;;;9.50;3.40;;;;;;;14.49;70.17;100140.25;4932208;29;20091;-84
2022/07/30 01:32:51;;;;;;;10.00;3.78;;;;;;;14.85;70.26;100198.72;4900914;29;20059;-84
2022/07/30 01:35:20;;;;;;;11.95;3.67;;;;;;;14.87;70.14;100201.34;4900679;29;20056;-85
2022/07/30 01:37:48;;;;;;;12.38;3.70;;;;;;;14.86;70.16;100189.94;4917287;29;20099;-83
2022/07/30 01:40:15;;;;;;;8.05;3.40;;;;;;;14.94;69.85;100206.50;4932113;29;20059;-83
2022/07/30 01:42:46;;;;;;;6.22;2.75;;;;;;;14.95;69.39;100200.38;4932261;29;20060;-83
2022/07/30 01:45:14;;;;;;;8.05;3.20;;;;;;;14.67;68.97;100162.03;4931701;29;20430;-82
2022/07/30 01:47:43;;;;;;;6.82;2.85;;;;;;;14.94;69.09;100214.41;4900624;29;20597;-82
2022/07/30 01:50:13;;;;;;;9.15;3.25;;;;;;;14.70;69.11;100154.16;4916688;29;20060;-84
2022/07/30 01:52:46;;;;;;;5.80;3.30;;;;;;;14.94;68.80;100203.00;4899835;29;20467;-84
2022/07/30 01:55:19;;;;;;;6.47;3.15;;;;;;;14.94;69.05;100198.63;4917225;29;20095;-84
2022/07/30 01:57:47;;;;;;;7.55;2.97;;;;;;;14.90;68.79;100196.91;4899742;29;20104;-84
2022/07/30 02:00:16;;;;;;;10.43;3.30;;;;;;;14.75;68.81;100154.97;4932056;29;20056;-83
2022/07/30 02:02:44;;;;;;;8.55;3.17;;;;;;;14.97;68.47;100181.97;4917955;29;20052;-82
2022/07/30 02:05:12;;;;;;;10.05;3.35;;;;;;;15.03;68.27;100205.56;4915729;29;20056;-83
2022/07/30 02:07:57;;;;;;;7.38;3.45;;;;;;;14.97;68.14;100181.97;4900163;29;20396;-82
2022/07/30 02:10:34;;;;;;;8.52;3.28;;;;;;;15.19;67.60;100224.72;4932178;29;20072;-82
2022/07/30 02:13:05;;;;;;;10.38;3.08;;;;;;;15.06;67.52;100196.78;4930616;29;20542;-83
2022/07/30 02:15:48;;;;;;;10.32;3.22;;;;;;;15.19;67.30;100213.31;4912766;29;20060;-84
2022/07/30 02:18:31;;;;;;;5.30;2.90;;;;;;;15.31;67.02;100221.06;4897692;29;20477;-83
2022/07/30 02:21:03;;;;;;;9.98;2.92;;;;;;;15.28;66.72;100213.22;4912726;29;20063;-81
2022/07/30 02:23:39;;;;;;;6.72;2.90;;;;;;;15.15;66.73;100181.75;4911518;29;20530;-82
2022/07/30 02:26:08;;;;;;;7.80;3.60;;;;;;;15.53;66.21;100219.06;4897918;29;20052;-82
2022/07/30 02:28:42;;;;;;;14.55;4.10;;;;;;;15.64;65.78;100222.47;4896830;29;20151;-82
2022/07/30 02:31:10;;;;;;;8.10;3.20;;;;;;;15.71;65.56;100221.53;4897860;29;20112;-81
2022/07/30 02:33:48;;;;;;;4.60;2.92;;;;;;;15.67;65.38;100224.19;4917328;29;20613;-81
2022/07/30 02:36:17;;;;;;;9.00;3.20;;;;;;;15.64;65.15;100196.16;4912494;29;20526;-81
2022/07/30 02:38:46;;;;;;;5.57;2.55;;;;;;;15.61;64.75;100172.47;4911846;29;20085;-82
2022/07/30 02:41:14;;;;;;;6.88;2.85;;;;;;;15.88;64.21;100195.00;4912389;29;20064;-82
2022/07/30 02:43:41;;;;;;;6.65;2.90;;;;;;;15.95;63.78;100178.19;4912298;29;20063;-81
2022/07/30 02:46:11;;;;;;;5.78;2.90;;;;;;;17.08;61.81;100242.44;4897325;29;20408;-81
2022/07/30 02:49:05;;;;;;;7.78;3.20;;;;;;;19.61;55.29;100235.91;4897646;29;20535;-81
2022/07/30 02:51:34;;;;;;;8.20;2.50;;;;;;;23.10;46.29;100222.03;4927929;29;20064;-82
2022/07/30 02:54:03;;;;;;;7.17;2.80;;;;;;;25.53;40.06;100202.47;4912073;29;20128;-82
2022/07/30 02:56:32;;;;;;;7.43;3.08;;;;;;;27.69;36.37;100222.31;4912331;29;20422;-83
2022/07/30 02:59:02;;;;;;;6.05;4.10;;;;;;;29.06;33.27;100230.47;4897667;29;20104;-82
2022/07/30 03:01:31;;;;;;;9.18;5.80;;;;;;;30.28;31.30;100238.13;4912397;29;20426;-83
2022/07/30 03:03:58;;;;;;;;;;;;;;;31.36;33.88;100218.34;4898133;29;20108;-83
2022/07/30 03:06:26;;;;;;;15.63;6.50;;;;;;;32.39;28.20;100204.72;4912176;29;20026;-82
2022/07/30 03:08:55;;;;;;;9.90;4.95;;;;;;;33.44;26.19;100204.88;4911714;29;20475;-82
2022/07/30 03:11:24;;;;;;;8.02;4.28;;;;;;;34.03;25.14;100211.47;4897283;29;20064;-80
2022/07/30 03:13:51;;;;;;;8.63;4.25;;;;;;;34.81;24.12;100222.50;4897345;29;20083;-79
2022/07/30 03:16:22;;;;;;;9.18;4.40;;;;;;;35.44;23.21;100223.88;4911916;29;20059;-80
2022/07/30 03:18:52;;;;;;;6.80;3.25;;;;;;;35.77;22.59;100189.91;4897285;29;20087;-80
2022/07/30 03:21:24;;;;;;;6.28;3.85;;;;;;;36.47;21.38;100201.13;4897155;29;20056;-80
2022/07/30 03:23:53;;;;;;;7.00;5.40;;;;;;;36.65;21.39;100230.22;4897547;29;20088;-80
2022/07/30 03:26:23;;;;;;;7.30;4.30;;;;;;;37.07;20.89;100235.88;4907435;29;20084;-81
2022/07/30 03:28:51;;;;;;;6.50;4.88;;;;;;;37.16;20.75;100228.66;4930645;29;20056;-80
2022/07/30 03:31:20;;;;;;;6.40;3.85;;;;;;;38.11;20.00;100226.88;4913763;29;20047;-82
2022/07/30 03:33:48;;;;;;;3.55;3.10;;;;;;;39.21;18.74;100236.84;4925578;29;20052;-81
2022/07/30 03:36:16;;;;;;;6.05;3.38;;;;;;;39.71;17.85;100202.94;4911572;29;20060;-81
2022/07/30 03:38:44;;;;;;;6.60;2.67;;;;;;;39.79;17.91;100221.19;4911707;29;20052;-81
2022/07/30 03:41:13;;;;;;;8.90;3.58;;;;;;;40.19;17.80;100231.16;4895901;29;20100;-82
2022/07/30 03:43:44;;;;;;;5.20;2.95;;;;;;;40.57;17.01;100214.00;4912018;29;20064;-81
2022/07/30 03:46:12;;;;;;;3.42;2.88;;;;;;;40.51;17.04;100221.09;4911645;29;20057;-81
2022/07/30 03:48:44;;;;;;;6.35;4.00;;;;;;;40.65;16.52;100236.69;4896418;29;20056;-81
2022/07/30 03:51:12;;;;;;;5.90;5.15;;;;;;;40.89;17.00;100222.03;4899252;29;20056;-80
2022/07/30 03:53:41;;;;;;;13.32;7.82;;;;;;;41.40;16.13;100213.19;4900437;29;20113;-81
2022/07/30 03:56:27;;;;;;;7.63;5.38;;;;;;;42.13;15.50;100207.91;4900502;29;20064;-82
2022/07/30 03:59:13;;;;;;;9.68;6.18;;;;;;;42.73;14.89;100233.31;4916271;29;20067;-81
2022/07/30 04:01:40;;;;;;;8.00;4.60;;;;;;;42.61;14.89;100218.38;4902302;29;20056;-82
2022/07/30 04:04:20;;;;;;;4.35;3.00;;;;;;;42.16;14.83;100234.94;4902558;29;20056;-81
2022/07/30 04:06:48;;;;;;;7.90;2.45;;;;;;;41.19;15.81;100210.31;4933852;29;20059;-81
2022/07/30 04:09:18;;;;;;;5.03;2.50;;;;;;;40.12;16.61;100239.22;4918996;29;20056;-81
2022/07/30 04:11:47;;;;;;;2.15;1.95;;;;;;;36.54;19.51;100219.53;4933563;29;20437;-80
2022/07/30 04:14:16;;;;;;;5.60;2.30;;;;;;;33.09;23.59;100215.22;4902033;29;20064;-80
2022/07/30 04:16:49;;;;;;;8.23;2.55;;;;;;;30.72;27.29;100242.09;4902358;29;20277;-81
2022/07/30 04:19:26;;;;;;;4.10;2.38;;;;;;;29.41;29.21;100243.34;4902046;29;20055;-81
2022/07/30 04:21:55;;;;;;;8.68;4.72;;;;;;;29.06;30.00;100243.91;4903645;29;20064;-81
2022/07/30 04:24:24;;;;;;;2.40;2.20;;;;;;;28.29;30.65;100245.41;4919886;29;20055;-81
2022/07/30 04:26:52;;;;;;;4.45;3.03;;;;;;;27.46;32.14;100216.53;4934816;29;20067;-84
2022/07/30 04:29:19;;;;;;;2.95;2.10;;;;;;;27.08;32.95;100248.31;4934460;29;20090;-82
2022/07/30 04:31:55;;;;;;;2.45;1.60;;;;;;;26.25;33.90;100199.50;4923826;29;20060;-80
2022/07/30 04:34:47;;;;;;;4.15;2.17;;;;;;;25.97;34.75;100259.91;4924620;29;20083;-82
2022/07/30 04:37:23;;;;;;;4.57;2.10;;;;;;;25.48;35.28;100212.53;4940292;29;20056;-81
2022/07/30 04:39:53;;;;;;;3.42;1.55;;;;;;;25.66;35.64;100255.28;4933390;29;20526;-81
2022/07/30 04:42:21;;;;;;;3.60;1.35;;;;;;;25.09;35.87;100253.72;4918429;29;20063;-82
2022/07/30 04:44:58;;;;;;;4.72;2.22;;;;;;;24.80;36.51;100270.34;4932408;29;20107;-82
2022/07/30 04:47:28;;;;;;;5.82;1.98;;;;;;;24.61;37.36;100265.91;4898138;29;20052;-82
2022/07/30 04:50:28;;;;;;;1.70;1.60;;;;;;;24.21;37.88;100202.84;4880943;29;20108;-81
2022/07/30 04:52:57;;;;;;;5.93;1.92;;;;;;;24.36;38.24;100258.19;4904795;29;20062;-82
2022/07/30 04:55:33;;;;;;;2.38;1.98;;;;;;;24.33;38.04;100272.53;4907628;29;20083;-82
2022/07/30 04:58:01;;;;;;;;;;;;;;;23.87;37.82;100268.44;4933283;29;20068;-83
2022/07/30 05:00:34;;;;;;;2.40;1.30;;;;;;;23.97;37.88;100271.59;4900745;29;19934;-81
2022/07/30 05:03:12;;;;;;;1.40;1.30;;;;;;;24.08;38.22;100263.94;4939951;29;20052;-82
2022/07/30 05:05:44;;;;;;;2.72;1.60;;;;;;;24.04;38.01;100273.03;4940670;29;20150;-81
2022/07/30 05:08:12;;;;;;;1.60;1.48;;;;;;;23.75;38.67;100248.50;4930419;29;20083;-80
2022/07/30 05:10:39;;;;;;;3.10;1.70;;;;;;;23.69;38.73;100270.97;4942771;29;20047;-81
2022/07/30 05:13:13;;;;;;;2.33;1.50;;;;;;;23.58;39.07;100256.41;4912279;29;20471;-81
2022/07/30 05:15:43;;;;;;;2.10;1.27;;;;;;;23.43;39.27;100237.47;4923552;29;20554;-80
2022/07/30 05:18:12;;;;;;;1.52;1.42;;;;;;;23.54;39.24;100273.47;4907148;29;20055;-82
2022/07/30 05:20:43;;;;;;;1.33;1.23;;;;;;;23.38;39.88;100252.81;4930827;29;20056;-81
2022/07/30 05:23:21;;;;;;;3.97;1.73;;;;;;;23.30;39.98;100231.81;4926018;29;20071;-82
2022/07/30 05:26:04;;;;;;;1.98;1.33;;;;;;;23.41;39.77;100226.00;4964135;29;20056;-82
2022/07/30 05:28:39;;;;;;;1.75;1.35;;;;;;;23.66;38.60;100246.25;4955082;29;20056;-83
2022/07/30 05:31:10;;;;;;;7.03;4.00;;;;;;;23.41;38.60;100259.81;4948832;29;20048;-83
2022/07/30 05:33:39;;;;;;;2.53;2.10;;;;;;;23.12;39.33;100216.59;4916533;29;20139;-83
2022/07/30 05:36:10;;;;;;;1.20;1.10;;;;;;;23.06;39.13;100207.09;4932955;29;20082;-81
2022/07/30 05:38:38;;;;;;;4.05;1.35;;;;;;;22.95;39.00;100211.09;4948326;29;20068;-82
2022/07/30 05:41:37;;;;;;;2.05;1.23;;;;;;;23.29;38.99;100264.72;4917085;29;20056;-82
2022/07/30 05:44:09;;;;;;;2.03;1.10;;;;;;;23.35;38.13;100262.72;4932230;28;20056;-83
2022/07/30 05:46:36;;;;;;;2.60;1.15;;;;;;;23.25;37.59;100241.81;4947887;29;20060;-82
2022/07/30 05:49:05;;;;;;;2.03;1.42;;;;;;;23.36;37.45;100267.13;4918040;29;20104;-83
2022/07/30 05:51:48;;;;;;;1.40;1.00;;;;;;;23.20;37.68;100232.28;4930202;29;20048;-82
2022/07/30 05:54:17;;;;;;;2.45;1.40;;;;;;;23.00;37.69;100219.78;4947469;29;20064;-81
2022/07/30 05:57:16;;;;;;;1.63;1.23;;;;;;;23.08;38.18;100266.50;4916993;29;20056;-83
2022/07/30 05:59:49;;;;;;;2.35;1.27;;;;;;;23.19;38.23;100244.75;4948239;29;20076;-82
2022/07/30 06:02:40;;;;;;;2.03;1.10;;;;;;;23.37;37.95;100274.19;4917521;29;20062;-81
2022/07/30 06:05:25;;;;;;;2.67;1.10;;;;;;;23.32;38.09;100229.09;4916482;29;20071;-82
2022/07/30 06:07:56;;;;;;;2.58;1.10;;;;;;;23.54;38.09;100274.31;4948040;29;20143;-82
2022/07/30 06:10:25;;;;;;;1.57;1.10;;;;;;;23.22;38.12;100227.75;4931638;29;20063;-81
2022/07/30 06:12:52;;;;;;;1.80;1.25;;;;;;;23.52;37.92;100262.88;4931438;29;20288;-81
2022/07/30 06:15:20;;;;;;;1.73;1.13;;;;;;;23.51;37.42;100270.00;4932907;29;20132;-83
2022/07/30 06:17:53;;;;;;;2.00;1.30;;;;;;;23.57;37.57;100262.66;4918659;29;20087;-83
2022/07/30 06:20:40;;;;;;;1.23;1.13;;;;;;;23.44;37.80;100273.00;4917123;29;20055;-83
2022/07/30 06:23:20;;;;;;;2.97;1.40;;;;;;;23.36;37.75;100227.13;4948121;28;20526;-82
2022/07/30 06:26:09;;;;;;;3.40;1.40;;;;;;;23.49;37.54;100218.56;4916585;29;20566;-82
2022/07/30 06:28:36;;;;;;;2.40;1.58;;;;;;;23.72;37.16;100240.63;4932764;29;20052;-84
2022/07/30 06:31:34;;;;;;;1.20;1.10;;;;;;;23.74;37.06;100230.75;4921345;29;20062;-83
2022/07/30 06:34:01;;;;;;;1.48;1.35;;;;;;;24.01;37.04;100250.03;4947738;28;20064;-82
2022/07/30 06:36:34;;;;;;;1.50;1.40;;;;;;;23.95;36.43;100228.09;4930539;29;20060;-82
2022/07/30 06:39:29;;;;;;;1.65;1.30;;;;;;;23.97;36.96;100256.44;4947754;29;20056;-81
2022/07/30 06:42:34;;;;;;;2.35;1.23;;;;;;;23.67;37.33;100251.50;4915785;29;20935;-81
2022/07/30 06:45:30;;;;;;;3.50;1.20;;;;;;;23.79;37.43;100249.25;4903532;29;20573;-82
2022/07/30 06:48:36;;;;;;;3.38;1.40;;;;;;;23.92;36.68;100255.78;4923576;29;20102;-81
2022/07/30 06:51:04;;;;;;;4.63;1.63;;;;;;;23.86;36.57;100270.25;4942469;29;20565;-80
2022/07/30 06:53:31;;;;;;;2.97;1.90;;;;;;;23.78;36.65;100260.88;4934855;29;20144;-80
2022/07/30 06:56:12;;;;;;;4.93;1.60;;;;;;;23.75;36.70;100239.63;4928364;29;20063;-82
2022/07/30 06:58:59;;;;;;;1.23;1.17;;;;;;;23.94;36.13;100261.94;4917103;29;20525;-83
2022/07/30 07:01:45;;;;;;;2.45;1.40;;;;;;;24.07;36.26;100267.53;4919339;29;20112;-82
2022/07/30 07:04:12;;;;;;;3.03;1.92;;;;;;;24.22;35.67;100240.16;4937949;29;20434;-80
2022/07/30 07:06:40;;;;;;;3.05;1.90;;;;;;;24.56;35.38;100253.72;4922596;29;20541;-81
2022/07/30 07:09:08;;;;;;;1.47;1.20;;;;;;;24.48;34.55;100257.63;4923992;29;20511;-81
2022/07/30 07:11:46;;;;;;;4.55;2.15;;;;;;;24.38;35.21;100252.78;4941074;29;20060;-81
2022/07/30 07:14:17;;;;;;;2.60;1.70;;;;;;;24.62;34.61;100259.63;4938527;29;20120;-81
2022/07/30 07:16:44;;;;;;;5.78;2.22;;;;;;;24.79;34.20;100257.94;4916689;29;20533;-83
2022/07/30 07:19:52;;;;;;;2.45;1.63;;;;;;;24.72;33.62;100236.00;4916929;29;20063;-83
2022/07/30 07:22:26;;;;;;;5.07;1.48;;;;;;;24.85;34.08;100261.16;4916613;29;20495;-81
2022/07/30 07:24:53;;;;;;;3.67;2.00;;;;;;;25.03;33.43;100262.03;4900940;29;20048;-83
2022/07/30 07:27:24;;;;;;;2.55;1.42;;;;;;;24.75;34.15;100254.53;4935378;29;20426;-84
2022/07/30 07:29:56;;;;;;;6.43;2.08;;;;;;;24.28;34.71;100257.66;4903538;29;20052;-83
2022/07/30 07:32:34;;;;;;;2.83;1.92;;;;;;;24.09;35.13;100249.66;4934995;29;20058;-83
2022/07/30 07:35:03;;;;;;;3.13;1.73;;;;;;;24.05;34.68;100232.06;4934969;29;20067;-82
2022/07/30 07:37:32;;;;;;;2.95;1.60;;;;;;;23.95;34.99;100260.97;4934775;29;20100;-82
2022/07/30 07:39:59;;;;;;;3.08;2.08;;;;;;;23.68;35.50;100209.69;4902790;29;20059;-81
2022/07/30 07:42:29;;;;;;;3.38;1.95;;;;;;;24.48;34.59;100249.63;4934179;29;20067;-82
2022/07/30 07:44:56;;;;;;;5.90;2.78;;;;;;;25.18;33.44;100251.53;4918106;29;20515;-83
2022/07/30 07:47:23;;;;;;;3.63;1.95;;;;;;;25.38;32.61;100238.03;4934074;29;20060;-79
2022/07/30 07:50:05;;;;;;;3.15;2.13;;;;;;;25.26;33.34;100201.25;4901811;29;20478;-81
2022/07/30 07:52:32;;;;;;;2.75;2.03;;;;;;;25.53;33.27;100245.25;4919598;29;20499;-81
2022/07/30 07:54:59;;;;;;;5.63;1.73;;;;;;;25.01;34.00;100225.66;4919617;29;20056;-82
2022/07/30 07:57:29;;;;;;;5.93;1.90;;;;;;;25.09;34.46;100245.72;4902589;29;20056;-81
2022/07/30 07:59:58;;;;;;;4.50;1.83;;;;;;;25.30;34.05;100229.56;4918306;29;20107;-81
2022/07/30 08:02:26;;;;;;;3.77;2.00;;;;;;;25.24;33.97;100212.00;4902319;29;20067;-81
2022/07/30 08:04:58;;;;;;;5.45;1.70;;;;;;;24.77;33.17;100203.72;4902349;29;20052;-81
2022/07/30 08:07:51;;;;;;;4.18;1.80;;;;;;;25.02;32.18;100241.63;4917720;29;20048;-82
2022/07/30 08:10:37;;;;;;;4.40;1.77;;;;;;;24.86;32.73;100246.00;4919153;29;20148;-82
2022/07/30 08:13:32;;;;;;;9.07;2.28;;;;;;;24.53;32.69;100238.72;4933384;29;20452;-83
2022/07/30 08:16:36;;;;;;;3.13;2.00;;;;;;;24.15;33.32;100195.13;4919272;29;20060;-82
2022/07/30 08:19:10;;;;;;;5.25;2.30;;;;;;;24.36;33.51;100231.47;4919199;29;20056;-83
2022/07/30 08:21:58;;;;;;;2.38;1.58;;;;;;;24.10;34.69;100235.38;4921300;29;20143;-83
2022/07/30 08:24:29;;;;;;;3.92;1.85;;;;;;;24.42;34.57;100239.19;4934047;29;20127;-81
2022/07/30 08:26:56;;;;;;;4.32;1.90;;;;;;;24.85;33.66;100229.13;4919558;29;20522;-82
2022/07/30 08:29:23;;;;;;;6.35;3.10;;;;;;;25.33;33.02;100224.91;4933690;29;20063;-80
2022/07/30 08:31:50;;;;;;;4.93;2.95;;;;;;;25.07;32.51;100178.09;4902538;29;20056;-81
2022/07/30 08:34:19;;;;;;;6.05;3.53;;;;;;;25.25;32.25;100216.44;4933350;29;20143;-80
2022/07/30 08:36:53;;;;;;;3.22;1.70;;;;;;;25.36;31.80;100214.97;4932660;29;20104;-80
2022/07/30 08:39:20;;;;;;;3.65;2.03;;;;;;;25.41;31.67;100234.34;4901771;29;20187;-78
2022/07/30 08:41:47;;;;;;;4.45;2.00;;;;;;;25.34;31.61;100205.25;4933446;29;20135;-80
2022/07/30 08:44:17;;;;;;;6.45;2.55;;;;;;;25.73;31.25;100211.25;4918873;29;20154;-80
2022/07/30 08:46:50;;;;;;;7.25;5.13;;;;;;;25.91;30.74;100220.94;4902009;29;20060;-81
2022/07/30 08:49:36;;;;;;;26.55;18.27;;;;;;;25.78;30.45;100219.00;4918532;29;20056;-80
2022/07/30 08:52:06;;;;;;;14.07;7.82;;;;;;;25.80;29.88;100225.13;4932898;29;20408;-80
2022/07/30 08:54:39;;;;;;;5.25;1.50;;;;;;;25.75;30.23;100220.03;4917180;29;20146;-80
2022/07/30 08:57:07;;;;;;;3.38;1.55;;;;;;;25.67;29.61;100206.22;4918078;29;20056;-79
2022/07/30 08:59:37;;;;;;;6.53;1.67;;;;;;;25.51;30.94;100209.72;4902270;29;20052;-81
2022/07/30 09:02:28;;;;;;;7.28;2.28;;;;;;;25.55;31.13;100226.44;4919247;29;20511;-80
2022/07/30 09:05:04;;;;;;;4.43;1.85;;;;;;;25.28;30.34;100199.38;4919047;29;20060;-80
2022/07/30 09:07:33;;;;;;;2.47;1.67;;;;;;;25.02;31.49;100219.38;4933798;29;20055;-80
2022/07/30 09:10:03;;;;;;;3.88;1.60;;;;;;;25.13;31.31;100211.69;4918229;29;20082;-80
2022/07/30 09:12:34;;;;;;;7.05;1.85;;;;;;;25.16;31.51;100197.28;4934825;29;20060;-80
2022/07/30 09:15:06;;;;;;;2.45;1.65;;;;;;;25.47;31.03;100210.81;4935319;29;20052;-81
2022/07/30 09:17:52;;;;;;;1.92;1.58;;;;;;;25.88;30.64;100205.09;4923507;29;20059;-79
2022/07/30 09:20:25;;;;;;;2.67;1.75;;;;;;;26.08;30.05;100192.41;4954654;29;20091;-81
2022/07/30 09:22:58;;;;;;;4.30;1.88;;;;;;;26.16;30.05;100198.19;4953833;29;20091;-80
2022/07/30 09:25:46;;;;;;;6.32;2.10;;;;;;;26.35;29.30;100193.53;4928640;29;20139;-77
2022/07/30 09:28:33;;;;;;;2.70;1.83;;;;;;;26.62;28.81;100209.00;4931811;29;20051;-82
2022/07/30 09:31:12;;;;;;;2.85;2.25;;;;;;;26.71;28.81;100199.56;4927764;29;20056;-81
2022/07/30 09:34:03;;;;;;;7.15;3.20;;;;;;;26.49;28.87;100205.25;4929006;29;20055;-80
2022/07/30 09:36:48;;;;;;;4.32;2.30;;;;;;;26.35;29.15;100163.22;4932082;29;20052;-79
2022/07/30 09:39:33;;;;;;;2.55;1.73;;;;;;;26.44;29.08;100204.66;4912806;29;20056;-79
2022/07/30 09:42:22;;;;;;;9.15;4.50;;;;;;;26.65;29.25;100208.81;4920512;29;20063;-78
2022/07/30 09:45:03;;;;;;;9.13;2.88;;;;;;;26.97;29.15;100208.72;4921805;29;20553;-81
2022/07/30 09:47:44;;;;;;;3.95;2.15;;;;;;;26.47;29.06;100209.84;4925767;29;20054;-78
2022/07/30 09:50:16;;;;;;;2.15;1.33;;;;;;;26.29;29.60;100204.59;4931444;29;20099;-79
2022/07/30 09:53:08;;;;;;;4.03;2.33;;;;;;;26.17;29.48;100215.97;4909834;29;20052;-78
2022/07/30 09:55:41;;;;;;;6.20;2.33;;;;;;;25.92;29.90;100211.09;4939818;29;20052;-80
2022/07/30 09:58:10;;;;;;;3.42;1.60;;;;;;;25.81;29.76;100208.13;4938462;29;20048;-80
2022/07/30 10:00:59;;;;;;;2.33;1.77;;;;;;;25.80;29.68;100201.91;4938966;29;20055;-81
2022/07/30 10:03:50;;;;;;;9.50;4.55;;;;;;;26.10;29.80;100203.88;4918465;29;20056;-82
2022/07/30 10:06:35;;;;;;;5.95;3.60;;;;;;;26.30;29.44;100184.88;4916991;29;20533;-79
2022/07/30 10:09:34;;;;;;;4.95;2.50;;;;;;;26.60;28.97;100188.59;4931624;29;20064;-79
2022/07/30 10:12:05;;;;;;;5.45;2.35;;;;;;;26.51;28.65;100152.47;4931752;29;20076;-79
2022/07/30 10:14:44;;;;;;;4.82;4.07;;;;;;;26.83;28.05;100182.75;4916006;29;20064;-79
2022/07/30 10:17:15;;;;;;;7.43;3.97;;;;;;;27.22;27.81;100188.53;4941355;29;20052;-82
2022/07/30 10:20:10;;;;;;;7.57;5.13;;;;;;;27.41;28.03;100191.81;4899524;29;20055;-81
2022/07/30 10:23:06;;;;;;;6.13;3.88;;;;;;;27.26;27.68;100163.28;4936313;29;20431;-82
2022/07/30 10:25:36;;;;;;;6.20;3.75;;;;;;;27.33;27.57;100188.75;4935558;29;20094;-79
2022/07/30 10:28:42;;;;;;;3.20;1.83;;;;;;;27.29;27.47;100204.16;4915081;29;20459;-79
2022/07/30 10:31:10;;;;;;;3.25;1.80;;;;;;;27.16;27.72;100153.06;4935719;29;20537;-80
2022/07/30 10:33:57;;;;;;;4.10;1.33;;;;;;;27.10;27.83;100145.41;4935869;29;20165;-81
2022/07/30 10:36:25;;;;;;;2.20;1.40;;;;;;;27.40;27.85;100171.31;4950042;29;20083;-81
2022/07/30 10:38:53;;;;;;;4.95;1.65;;;;;;;27.37;27.69;100190.28;4935494;29;20150;-79
2022/07/30 10:41:43;;;;;;;2.97;1.20;;;;;;;27.42;27.25;100179.25;4950108;28;20055;-80
2022/07/30 10:44:31;;;;;;;2.85;1.70;;;;;;;27.67;27.14;100176.78;4927202;29;20059;-79
2022/07/30 10:47:05;;;;;;;6.45;2.22;;;;;;;27.78;26.48;100176.09;4925870;29;20051;-80
2022/07/30 10:49:34;;;;;;;2.22;1.58;;;;;;;27.80;26.50;100186.75;4926005;29;20426;-78
2022/07/30 10:52:09;;;;;;;3.17;2.08;;;;;;;27.70;26.90;100184.63;4929619;29;20052;-79
2022/07/30 10:54:46;;;;;;;1.73;1.45;;;;;;;27.20;27.76;100201.16;4935493;29;20510;-80
2022/07/30 10:57:18;;;;;;;3.25;1.50;;;;;;;27.10;27.48;100192.78;4935809;29;20082;-81
2022/07/30 10:59:58;;;;;;;3.83;1.63;;;;;;;27.37;27.46;100182.22;4939405;29;20438;-80
2022/07/30 11:02:28;;;;;;;3.80;1.50;;;;;;;27.41;27.46;100196.34;4956025;28;20075;-79
2022/07/30 11:05:19;;;;;;;3.47;1.90;;;;;;;26.79;28.65;100175.84;4940316;29;20067;-80
2022/07/30 11:08:24;;;;;;;;;;;;;;;26.39;29.44;100180.81;4922679;29;20055;-79
2022/07/30 11:10:57;;;;;;;5.43;1.85;;;;;;;26.50;29.05;100182.88;4922826;29;19926;-79
2022/07/30 11:13:51;;;;;;;4.55;1.90;;;;;;;26.57;28.96;100173.56;4922642;29;20052;-79
2022/07/30 11:16:22;;;;;;;3.05;1.65;;;;;;;26.35;29.68;100177.47;4926807;29;20055;-82
2022/07/30 11:19:04;;;;;;;3.95;2.00;;;;;;;26.12;29.77;100200.19;4928495;29;20052;-79
2022/07/30 11:22:30;;;;;;;4.03;1.50;;;;;;;26.05;29.87;100187.19;4923208;29;20104;-83
2022/07/30 11:24:58;;;;;;;4.85;2.72;;;;;;;26.21;29.70;100193.44;4922334;29;20069;-80
2022/07/30 11:27:47;;;;;;;3.50;2.75;;;;;;;26.14;28.98;100167.97;4915120;29;20158;-82
2022/07/30 11:30:17;;;;;;;2.35;2.15;;;;;;;26.21;29.75;100169.34;4926824;29;20052;-80
2022/07/30 11:32:46;;;;;;;5.82;2.90;;;;;;;26.09;28.72;100136.13;4922827;29;20062;-82
2022/07/30 11:35:27;;;;;;;4.63;1.83;;;;;;;26.26;29.25;100169.94;4922943;29;20506;-82
2022/07/30 11:38:06;;;;;;;2.50;1.80;;;;;;;25.85;29.68;100186.47;4922909;29;20052;-80
2022/07/30 11:40:41;;;;;;;6.80;2.05;;;;;;;25.67;29.82;100163.41;4924697;29;20090;-81
2022/07/30 11:43:35;;;;;;;1.67;1.58;;;;;;;26.26;29.25;100169.94;4942789;29;20437;-80
2022/07/30 11:46:27;;;;;;;5.28;1.70;;;;;;;26.24;29.09;100170.97;4932416;29;20561;-79
2022/07/30 11:48:56;;;;;;;5.05;2.05;;;;;;;26.06;29.27;100165.72;4927784;29;20112;-81
2022/07/30 11:51:24;;;;;;;4.00;1.55;;;;;;;26.10;29.53;100151.22;4922552;29;20410;-80
2022/07/30 11:54:01;;;;;;;3.85;1.90;;;;;;;26.22;29.74;100160.38;4922471;29;20070;-81
2022/07/30 11:56:29;;;;;;;5.35;2.65;;;;;;;26.27;29.57;100147.59;4922593;29;20060;-80
2022/07/30 11:59:04;;;;;;;3.55;2.08;;;;;;;26.18;30.11;100172.22;4922208;29;20055;-80